sensor_id;sensor_type;location;lat;lon;timestamp;temperature;humidity
14769;DHT22;7476;49.404;11.152;2023-02-28T00:00:10;-6.90;99.90
14769;DHT22;7476;49.404;11.152;2023-02-28T00:02:39;-6.60;99.90
14769;DHT22;7476;49.404;11.152;2023-02-28T00:05:08;-6.50;99.90
14769;DHT22;7476;49.404;11.152;2023-02-28T00:07:35;-6.60;99.90
14769;DHT22;7476;49.404;11.152;2023-02-28T00:10:04;-6.40;99.90
14769;DHT22;7476;49.404;11.152;2023-02-28T00:12:33;-5.80;99.90
14769;DHT22;7476;49.404;11.152;2023-02-28T00:14:59;-5.30;99.90
14769;DHT22;7476;49.404;11.152;2023-02-28T00:17:26;-4.90;99.90
14769;DHT22;7476;49.404;11.152;2023-02-28T00:19:53;-4.70;99.90
14769;DHT22;7476;49.404;11.152;2023-02-28T00:22:21;-4.60;99.90
14769;DHT22;7476;49.404;11.152;2023-02-28T00:24:48;-4.50;99.90
14769;DHT22;7476;49.404;11.152;2023-02-28T00:27:15;-4.60;99.90
14769;DHT22;7476;49.404;11.152;2023-02-28T00:29:43;-4.70;99.90
14769;DHT22;7476;49.404;11.152;2023-02-28T00:32:09;-4.70;99.90
14769;DHT22;7476;49.404;11.152;2023-02-28T00:34:36;-4.60;99.90
14769;DHT22;7476;49.404;11.152;2023-02-28T00:37:04;-4.90;99.90
14769;DHT22;7476;49.404;11.152;2023-02-28T00:39:31;-4.80;99.90
14769;DHT22;7476;49.404;11.152;2023-02-28T00:41:59;-4.40;99.90
14769;DHT22;7476;49.404;11.152;2023-02-28T00:44:26;-4.30;99.90
14769;DHT22;7476;49.404;11.152;2023-02-28T00:46:54;-4.00;99.90
14769;DHT22;7476;49.404;11.152;2023-02-28T00:49:21;-4.10;99.90
14769;DHT22;7476;49.404;11.152;2023-02-28T00:51:48;-4.30;99.90
14769;DHT22;7476;49.404;11.152;2023-02-28T00:54:15;-4.10;99.90
14769;DHT22;7476;49.404;11.152;2023-02-28T00:56:42;-3.70;99.90
14769;DHT22;7476;49.404;11.152;2023-02-28T00:59:11;-3.60;99.90
14769;DHT22;7476;49.404;11.152;2023-02-28T01:01:38;-3.60;99.90
14769;DHT22;7476;49.404;11.152;2023-02-28T01:04:06;-3.60;99.90
14769;DHT22;7476;49.404;11.152;2023-02-28T01:06:33;-3.50;99.90
14769;DHT22;7476;49.404;11.152;2023-02-28T01:09:00;-3.40;99.90
14769;DHT22;7476;49.404;11.152;2023-02-28T01:11:27;-3.40;99.90
14769;DHT22;7476;49.404;11.152;2023-02-28T01:13:53;-3.40;99.90
14769;DHT22;7476;49.404;11.152;2023-02-28T01:16:20;-3.30;99.90
14769;DHT22;7476;49.404;11.152;2023-02-28T01:18:47;-3.20;99.90
14769;DHT22;7476;49.404;11.152;2023-02-28T01:21:17;-3.30;99.90
14769;DHT22;7476;49.404;11.152;2023-02-28T01:23:44;-3.30;99.90
14769;DHT22;7476;49.404;11.152;2023-02-28T01:26:13;-3.30;99.90
14769;DHT22;7476;49.404;11.152;2023-02-28T01:28:41;-3.30;99.90
14769;DHT22;7476;49.404;11.152;2023-02-28T01:31:08;-3.10;99.90
14769;DHT22;7476;49.404;11.152;2023-02-28T01:33:35;-3.20;99.90
14769;DHT22;7476;49.404;11.152;2023-02-28T01:36:05;-3.20;99.90
14769;DHT22;7476;49.404;11.152;2023-02-28T01:38:33;-3.20;99.90
14769;DHT22;7476;49.404;11.152;2023-02-28T01:41:00;-3.20;99.90
14769;DHT22;7476;49.404;11.152;2023-02-28T01:43:28;-3.30;99.90
14769;DHT22;7476;49.404;11.152;2023-02-28T01:45:57;-3.20;99.90
14769;DHT22;7476;49.404;11.152;2023-02-28T01:48:26;-3.20;99.90
14769;DHT22;7476;49.404;11.152;2023-02-28T01:50:54;-3.20;99.90
14769;DHT22;7476;49.404;11.152;2023-02-28T01:53:27;-3.10;99.90
14769;DHT22;7476;49.404;11.152;2023-02-28T01:55:58;-3.10;99.90
14769;DHT22;7476;49.404;11.152;2023-02-28T01:58:25;-3.20;99.90
14769;DHT22;7476;49.404;11.152;2023-02-28T02:00:52;-3.10;99.90
14769;DHT22;7476;49.404;11.152;2023-02-28T02:03:20;-3.20;99.90
14769;DHT22;7476;49.404;11.152;2023-02-28T02:05:47;-3.20;99.90
14769;DHT22;7476;49.404;11.152;2023-02-28T02:08:17;-3.30;99.90
14769;DHT22;7476;49.404;11.152;2023-02-28T02:10:46;-3.20;99.90
14769;DHT22;7476;49.404;11.152;2023-02-28T02:13:34;-3.20;99.90
14769;DHT22;7476;49.404;11.152;2023-02-28T02:16:11;-3.20;99.90
14769;DHT22;7476;49.404;11.152;2023-02-28T02:18:43;-3.10;99.90
14769;DHT22;7476;49.404;11.152;2023-02-28T02:21:47;-3.00;99.90
14769;DHT22;7476;49.404;11.152;2023-02-28T02:24:41;-2.90;99.90
14769;DHT22;7476;49.404;11.152;2023-02-28T02:27:22;-3.10;99.90
14769;DHT22;7476;49.404;11.152;2023-02-28T02:30:17;-3.10;99.90
14769;DHT22;7476;49.404;11.152;2023-02-28T02:33:10;-3.10;99.90
14769;DHT22;7476;49.404;11.152;2023-02-28T02:35:50;-3.00;99.90
14769;DHT22;7476;49.404;11.152;2023-02-28T02:38:26;-2.90;99.90
14769;DHT22;7476;49.404;11.152;2023-02-28T02:41:01;-3.20;99.90
14769;DHT22;7476;49.404;11.152;2023-02-28T02:43:36;-2.90;99.90
14769;DHT22;7476;49.404;11.152;2023-02-28T02:46:06;-3.00;99.90
14769;DHT22;7476;49.404;11.152;2023-02-28T02:48:35;-3.10;99.90
14769;DHT22;7476;49.404;11.152;2023-02-28T02:51:07;-3.10;99.90
14769;DHT22;7476;49.404;11.152;2023-02-28T02:53:41;-3.10;99.90
14769;DHT22;7476;49.404;11.152;2023-02-28T02:56:09;-3.20;99.90
14769;DHT22;7476;49.404;11.152;2023-02-28T02:58:40;-3.20;99.90
14769;DHT22;7476;49.404;11.152;2023-02-28T03:01:10;-3.40;99.90
14769;DHT22;7476;49.404;11.152;2023-02-28T03:03:39;-3.30;99.90
14769;DHT22;7476;49.404;11.152;2023-02-28T03:06:07;-3.20;99.90
14769;DHT22;7476;49.404;11.152;2023-02-28T03:08:36;-3.00;99.90
14769;DHT22;7476;49.404;11.152;2023-02-28T03:11:04;-3.00;99.90
14769;DHT22;7476;49.404;11.152;2023-02-28T03:16:33;-2.90;99.90
14769;DHT22;7476;49.404;11.152;2023-02-28T03:19:12;-3.10;99.90
14769;DHT22;7476;49.404;11.152;2023-02-28T03:21:50;-3.20;99.90
14769;DHT22;7476;49.404;11.152;2023-02-28T03:24:24;-3.20;99.90
14769;DHT22;7476;49.404;11.152;2023-02-28T03:26:57;-3.30;99.90
14769;DHT22;7476;49.404;11.152;2023-02-28T03:29:30;-3.30;99.90
14769;DHT22;7476;49.404;11.152;2023-02-28T03:32:04;-3.30;99.90
14769;DHT22;7476;49.404;11.152;2023-02-28T03:34:34;-3.20;99.90
14769;DHT22;7476;49.404;11.152;2023-02-28T03:37:07;-3.20;99.90
14769;DHT22;7476;49.404;11.152;2023-02-28T03:39:37;-3.30;99.90
14769;DHT22;7476;49.404;11.152;2023-02-28T03:42:08;-3.40;99.90
14769;DHT22;7476;49.404;11.152;2023-02-28T03:44:39;-3.50;99.90
14769;DHT22;7476;49.404;11.152;2023-02-28T03:47:10;-3.70;99.90
14769;DHT22;7476;49.404;11.152;2023-02-28T03:49:40;-3.50;99.90
14769;DHT22;7476;49.404;11.152;2023-02-28T03:52:10;-3.40;99.90
14769;DHT22;7476;49.404;11.152;2023-02-28T03:54:42;-3.50;99.90
14769;DHT22;7476;49.404;11.152;2023-02-28T03:57:12;-3.40;99.90
14769;DHT22;7476;49.404;11.152;2023-02-28T03:59:44;-3.40;99.90
14769;DHT22;7476;49.404;11.152;2023-02-28T04:02:11;-3.40;99.90
14769;DHT22;7476;49.404;11.152;2023-02-28T04:04:38;-3.40;99.90
14769;DHT22;7476;49.404;11.152;2023-02-28T04:07:15;-3.50;99.90
14769;DHT22;7476;49.404;11.152;2023-02-28T04:09:42;-3.50;99.90
14769;DHT22;7476;49.404;11.152;2023-02-28T04:12:09;-3.60;99.90
14769;DHT22;7476;49.404;11.152;2023-02-28T04:14:36;-3.60;99.90
14769;DHT22;7476;49.404;11.152;2023-02-28T04:17:03;-3.60;99.90
14769;DHT22;7476;49.404;11.152;2023-02-28T04:19:30;-3.70;99.90
14769;DHT22;7476;49.404;11.152;2023-02-28T04:21:57;-3.90;99.90
14769;DHT22;7476;49.404;11.152;2023-02-28T04:24:26;-3.90;99.90
14769;DHT22;7476;49.404;11.152;2023-02-28T04:26:54;-3.80;99.90
14769;DHT22;7476;49.404;11.152;2023-02-28T04:29:23;-3.90;99.90
14769;DHT22;7476;49.404;11.152;2023-02-28T04:31:50;-4.00;99.90
14769;DHT22;7476;49.404;11.152;2023-02-28T04:34:18;-3.80;99.90
14769;DHT22;7476;49.404;11.152;2023-02-28T04:36:46;-3.70;99.90
14769;DHT22;7476;49.404;11.152;2023-02-28T04:39:14;-3.80;99.90
14769;DHT22;7476;49.404;11.152;2023-02-28T04:41:45;-3.60;99.90
14769;DHT22;7476;49.404;11.152;2023-02-28T04:44:12;-3.60;99.90
14769;DHT22;7476;49.404;11.152;2023-02-28T04:46:39;-3.60;99.90
14769;DHT22;7476;49.404;11.152;2023-02-28T04:49:05;-3.60;99.90
14769;DHT22;7476;49.404;11.152;2023-02-28T04:51:32;-3.80;99.90
14769;DHT22;7476;49.404;11.152;2023-02-28T04:53:59;-3.80;99.90
14769;DHT22;7476;49.404;11.152;2023-02-28T04:56:26;-3.70;99.90
14769;DHT22;7476;49.404;11.152;2023-02-28T04:58:54;-3.70;99.90
14769;DHT22;7476;49.404;11.152;2023-02-28T05:01:23;-3.60;99.90
14769;DHT22;7476;49.404;11.152;2023-02-28T05:03:51;-3.50;99.90
14769;DHT22;7476;49.404;11.152;2023-02-28T05:06:19;-3.70;99.90
14769;DHT22;7476;49.404;11.152;2023-02-28T05:08:46;-3.70;99.90
14769;DHT22;7476;49.404;11.152;2023-02-28T05:11:16;-3.90;99.90
14769;DHT22;7476;49.404;11.152;2023-02-28T05:13:43;-3.80;99.90
14769;DHT22;7476;49.404;11.152;2023-02-28T05:16:11;-3.70;99.90
14769;DHT22;7476;49.404;11.152;2023-02-28T05:18:38;-3.70;99.90
14769;DHT22;7476;49.404;11.152;2023-02-28T05:21:05;-3.80;99.90
14769;DHT22;7476;49.404;11.152;2023-02-28T05:23:32;-3.80;99.90
14769;DHT22;7476;49.404;11.152;2023-02-28T05:25:59;-3.70;99.90
14769;DHT22;7476;49.404;11.152;2023-02-28T05:28:26;-3.60;99.90
14769;DHT22;7476;49.404;11.152;2023-02-28T05:30:52;-3.50;99.90
14769;DHT22;7476;49.404;11.152;2023-02-28T05:33:20;-3.60;99.90
14769;DHT22;7476;49.404;11.152;2023-02-28T05:35:47;-3.60;99.90
14769;DHT22;7476;49.404;11.152;2023-02-28T05:38:14;-3.60;99.90
14769;DHT22;7476;49.404;11.152;2023-02-28T05:40:41;-3.60;99.90
14769;DHT22;7476;49.404;11.152;2023-02-28T05:43:10;-3.60;99.90
14769;DHT22;7476;49.404;11.152;2023-02-28T05:45:37;-3.70;99.90
14769;DHT22;7476;49.404;11.152;2023-02-28T05:48:04;-3.70;99.90
14769;DHT22;7476;49.404;11.152;2023-02-28T05:50:32;-3.70;99.90
14769;DHT22;7476;49.404;11.152;2023-02-28T05:52:59;-3.70;99.90
14769;DHT22;7476;49.404;11.152;2023-02-28T05:55:25;-3.80;99.90
14769;DHT22;7476;49.404;11.152;2023-02-28T05:57:52;-3.80;99.90
14769;DHT22;7476;49.404;11.152;2023-02-28T06:00:19;-3.90;99.90
14769;DHT22;7476;49.404;11.152;2023-02-28T06:02:46;-4.00;99.90
14769;DHT22;7476;49.404;11.152;2023-02-28T06:05:14;-4.20;99.90
14769;DHT22;7476;49.404;11.152;2023-02-28T06:07:43;-4.00;99.90
14769;DHT22;7476;49.404;11.152;2023-02-28T06:10:11;-4.30;99.90
14769;DHT22;7476;49.404;11.152;2023-02-28T06:12:38;-4.50;99.90
14769;DHT22;7476;49.404;11.152;2023-02-28T06:15:05;-4.60;99.90
14769;DHT22;7476;49.404;11.152;2023-02-28T06:17:32;-4.60;99.90
14769;DHT22;7476;49.404;11.152;2023-02-28T06:19:59;-4.70;99.90
14769;DHT22;7476;49.404;11.152;2023-02-28T06:22:25;-4.50;99.90
14769;DHT22;7476;49.404;11.152;2023-02-28T06:24:54;-4.60;99.90
14769;DHT22;7476;49.404;11.152;2023-02-28T06:27:22;-4.80;99.90
14769;DHT22;7476;49.404;11.152;2023-02-28T06:29:53;-4.90;99.90
14769;DHT22;7476;49.404;11.152;2023-02-28T06:32:20;-4.90;99.90
14769;DHT22;7476;49.404;11.152;2023-02-28T06:34:46;-4.90;99.90
14769;DHT22;7476;49.404;11.152;2023-02-28T06:37:13;-4.90;99.90
14769;DHT22;7476;49.404;11.152;2023-02-28T06:39:40;-4.90;99.90
14769;DHT22;7476;49.404;11.152;2023-02-28T06:42:08;-4.80;99.90
14769;DHT22;7476;49.404;11.152;2023-02-28T06:44:35;-4.70;99.90
14769;DHT22;7476;49.404;11.152;2023-02-28T06:47:02;-4.60;99.90
14769;DHT22;7476;49.404;11.152;2023-02-28T06:49:30;-4.30;99.90
14769;DHT22;7476;49.404;11.152;2023-02-28T06:51:56;-4.20;99.90
14769;DHT22;7476;49.404;11.152;2023-02-28T06:54:23;-3.80;99.90
14769;DHT22;7476;49.404;11.152;2023-02-28T06:56:50;-3.10;99.90
14769;DHT22;7476;49.404;11.152;2023-02-28T06:59:18;-2.70;99.90
14769;DHT22;7476;49.404;11.152;2023-02-28T07:01:45;-2.20;99.90
14769;DHT22;7476;49.404;11.152;2023-02-28T07:04:12;-1.80;99.90
14769;DHT22;7476;49.404;11.152;2023-02-28T07:06:39;-1.60;99.90
14769;DHT22;7476;49.404;11.152;2023-02-28T07:09:06;-1.20;99.90
14769;DHT22;7476;49.404;11.152;2023-02-28T07:11:33;-1.10;99.90
14769;DHT22;7476;49.404;11.152;2023-02-28T07:14:00;-0.90;99.90
14769;DHT22;7476;49.404;11.152;2023-02-28T07:16:28;-0.80;99.90
14769;DHT22;7476;49.404;11.152;2023-02-28T07:18:55;-0.70;99.90
14769;DHT22;7476;49.404;11.152;2023-02-28T07:21:22;-0.50;99.90
14769;DHT22;7476;49.404;11.152;2023-02-28T07:23:49;-0.50;99.90
14769;DHT22;7476;49.404;11.152;2023-02-28T07:26:17;-0.30;99.90
14769;DHT22;7476;49.404;11.152;2023-02-28T07:28:46;-0.20;99.90
14769;DHT22;7476;49.404;11.152;2023-02-28T07:31:13;0.10;99.90
14769;DHT22;7476;49.404;11.152;2023-02-28T07:33:41;0.50;99.90
14769;DHT22;7476;49.404;11.152;2023-02-28T07:36:10;0.30;99.90
14769;DHT22;7476;49.404;11.152;2023-02-28T07:38:41;0.40;99.90
14769;DHT22;7476;49.404;11.152;2023-02-28T07:41:08;0.10;99.90
14769;DHT22;7476;49.404;11.152;2023-02-28T07:43:35;0.10;99.90
14769;DHT22;7476;49.404;11.152;2023-02-28T07:46:03;0.10;99.90
14769;DHT22;7476;49.404;11.152;2023-02-28T07:48:30;0.20;99.90
14769;DHT22;7476;49.404;11.152;2023-02-28T07:50:59;0.70;99.90
14769;DHT22;7476;49.404;11.152;2023-02-28T07:53:25;0.80;99.90
14769;DHT22;7476;49.404;11.152;2023-02-28T07:55:55;0.80;99.90
14769;DHT22;7476;49.404;11.152;2023-02-28T07:58:22;0.80;99.90
14769;DHT22;7476;49.404;11.152;2023-02-28T08:00:48;0.80;99.90
14769;DHT22;7476;49.404;11.152;2023-02-28T08:03:16;0.90;99.90
14769;DHT22;7476;49.404;11.152;2023-02-28T08:05:42;1.00;99.90
14769;DHT22;7476;49.404;11.152;2023-02-28T08:08:10;1.30;99.90
14769;DHT22;7476;49.404;11.152;2023-02-28T08:10:37;1.30;99.90
14769;DHT22;7476;49.404;11.152;2023-02-28T08:13:04;1.10;99.90
14769;DHT22;7476;49.404;11.152;2023-02-28T08:15:31;1.20;99.90
14769;DHT22;7476;49.404;11.152;2023-02-28T08:17:57;1.10;99.90
14769;DHT22;7476;49.404;11.152;2023-02-28T08:20:25;1.30;99.90
14769;DHT22;7476;49.404;11.152;2023-02-28T08:22:52;1.60;99.90
14769;DHT22;7476;49.404;11.152;2023-02-28T08:25:20;1.50;99.90
14769;DHT22;7476;49.404;11.152;2023-02-28T08:27:47;1.60;99.90
14769;DHT22;7476;49.404;11.152;2023-02-28T08:30:14;1.60;99.90
14769;DHT22;7476;49.404;11.152;2023-02-28T08:32:41;1.70;99.90
14769;DHT22;7476;49.404;11.152;2023-02-28T08:35:08;1.90;99.90
14769;DHT22;7476;49.404;11.152;2023-02-28T08:37:36;1.80;99.90
14769;DHT22;7476;49.404;11.152;2023-02-28T08:40:03;2.10;99.90
14769;DHT22;7476;49.404;11.152;2023-02-28T08:42:32;1.90;99.90
14769;DHT22;7476;49.404;11.152;2023-02-28T08:44:58;1.70;99.90
14769;DHT22;7476;49.404;11.152;2023-02-28T08:47:25;1.60;99.90
14769;DHT22;7476;49.404;11.152;2023-02-28T08:49:52;1.80;99.90
14769;DHT22;7476;49.404;11.152;2023-02-28T08:52:18;2.00;99.90
14769;DHT22;7476;49.404;11.152;2023-02-28T08:54:45;2.00;99.90
14769;DHT22;7476;49.404;11.152;2023-02-28T08:57:12;2.30;99.90
14769;DHT22;7476;49.404;11.152;2023-02-28T08:59:40;1.80;99.90
14769;DHT22;7476;49.404;11.152;2023-02-28T09:02:09;1.50;99.90
14769;DHT22;7476;49.404;11.152;2023-02-28T09:04:35;1.60;99.90
14769;DHT22;7476;49.404;11.152;2023-02-28T09:07:02;1.90;99.90
14769;DHT22;7476;49.404;11.152;2023-02-28T09:09:29;2.00;99.90
14769;DHT22;7476;49.404;11.152;2023-02-28T09:11:56;1.90;99.90
14769;DHT22;7476;49.404;11.152;2023-02-28T09:14:22;2.20;99.90
14769;DHT22;7476;49.404;11.152;2023-02-28T09:16:50;2.50;99.90
14769;DHT22;7476;49.404;11.152;2023-02-28T09:19:17;2.70;99.90
14769;DHT22;7476;49.404;11.152;2023-02-28T09:21:43;2.90;99.90
14769;DHT22;7476;49.404;11.152;2023-02-28T09:24:10;2.90;99.90
14769;DHT22;7476;49.404;11.152;2023-02-28T09:26:40;3.00;99.90
14769;DHT22;7476;49.404;11.152;2023-02-28T09:29:06;3.10;99.90
14769;DHT22;7476;49.404;11.152;2023-02-28T09:31:33;3.10;99.90
14769;DHT22;7476;49.404;11.152;2023-02-28T09:34:01;3.20;99.90
14769;DHT22;7476;49.404;11.152;2023-02-28T09:36:28;3.00;99.90
14769;DHT22;7476;49.404;11.152;2023-02-28T09:38:55;3.00;99.90
14769;DHT22;7476;49.404;11.152;2023-02-28T09:41:24;3.00;99.90
14769;DHT22;7476;49.404;11.152;2023-02-28T09:43:55;3.00;99.90
14769;DHT22;7476;49.404;11.152;2023-02-28T09:46:29;3.00;99.90
14769;DHT22;7476;49.404;11.152;2023-02-28T09:49:02;3.00;99.90
14769;DHT22;7476;49.404;11.152;2023-02-28T09:51:43;3.10;99.90
14769;DHT22;7476;49.404;11.152;2023-02-28T09:54:14;3.40;99.90
14769;DHT22;7476;49.404;11.152;2023-02-28T09:56:45;3.40;99.90
14769;DHT22;7476;49.404;11.152;2023-02-28T09:59:37;3.20;99.90
14769;DHT22;7476;49.404;11.152;2023-02-28T10:02:20;3.60;99.90
14769;DHT22;7476;49.404;11.152;2023-02-28T10:04:51;3.30;99.90
14769;DHT22;7476;49.404;11.152;2023-02-28T10:07:32;3.60;99.90
14769;DHT22;7476;49.404;11.152;2023-02-28T10:10:07;3.80;99.90
14769;DHT22;7476;49.404;11.152;2023-02-28T10:12:45;4.20;99.90
14769;DHT22;7476;49.404;11.152;2023-02-28T10:15:14;4.40;99.90
14769;DHT22;7476;49.404;11.152;2023-02-28T10:17:46;4.00;99.90
14769;DHT22;7476;49.404;11.152;2023-02-28T10:20:19;3.80;99.90
14769;DHT22;7476;49.404;11.152;2023-02-28T10:22:52;3.60;99.90
14769;DHT22;7476;49.404;11.152;2023-02-28T10:25:21;4.00;99.90
14769;DHT22;7476;49.404;11.152;2023-02-28T10:27:49;4.00;99.90
14769;DHT22;7476;49.404;11.152;2023-02-28T10:30:16;4.60;99.90
14769;DHT22;7476;49.404;11.152;2023-02-28T10:32:49;4.80;99.90
14769;DHT22;7476;49.404;11.152;2023-02-28T10:35:19;4.90;99.90
14769;DHT22;7476;49.404;11.152;2023-02-28T10:37:47;4.60;99.90
14769;DHT22;7476;49.404;11.152;2023-02-28T10:40:27;4.70;99.90
14769;DHT22;7476;49.404;11.152;2023-02-28T10:42:55;4.20;99.90
14769;DHT22;7476;49.404;11.152;2023-02-28T10:45:22;4.80;99.90
14769;DHT22;7476;49.404;11.152;2023-02-28T10:47:53;4.90;99.90
14769;DHT22;7476;49.404;11.152;2023-02-28T10:50:32;4.80;99.90
14769;DHT22;7476;49.404;11.152;2023-02-28T10:53:12;5.00;99.90
14769;DHT22;7476;49.404;11.152;2023-02-28T10:55:40;5.20;99.90
14769;DHT22;7476;49.404;11.152;2023-02-28T10:58:20;5.10;99.90
14769;DHT22;7476;49.404;11.152;2023-02-28T11:00:48;4.90;99.90
14769;DHT22;7476;49.404;11.152;2023-02-28T11:03:24;5.30;99.90
14769;DHT22;7476;49.404;11.152;2023-02-28T11:05:53;5.10;99.90
14769;DHT22;7476;49.404;11.152;2023-02-28T11:08:19;5.30;99.90
14769;DHT22;7476;49.404;11.152;2023-02-28T11:10:47;5.80;99.90
14769;DHT22;7476;49.404;11.152;2023-02-28T11:13:17;5.30;99.90
14769;DHT22;7476;49.404;11.152;2023-02-28T11:15:51;5.50;99.90
14769;DHT22;7476;49.404;11.152;2023-02-28T11:18:22;5.60;99.90
14769;DHT22;7476;49.404;11.152;2023-02-28T11:20:54;5.50;99.90
14769;DHT22;7476;49.404;11.152;2023-02-28T11:23:25;5.80;99.90
14769;DHT22;7476;49.404;11.152;2023-02-28T11:25:56;6.00;99.90
14769;DHT22;7476;49.404;11.152;2023-02-28T11:28:26;6.20;99.90
14769;DHT22;7476;49.404;11.152;2023-02-28T11:31:02;6.80;99.90
14769;DHT22;7476;49.404;11.152;2023-02-28T11:33:30;6.80;99.90
14769;DHT22;7476;49.404;11.152;2023-02-28T11:36:02;6.10;99.90
14769;DHT22;7476;49.404;11.152;2023-02-28T11:38:31;5.70;99.90
14769;DHT22;7476;49.404;11.152;2023-02-28T11:41:15;6.10;99.90
14769;DHT22;7476;49.404;11.152;2023-02-28T11:46:46;7.80;99.90
14769;DHT22;7476;49.404;11.152;2023-02-28T11:49:25;8.30;99.90
14769;DHT22;7476;49.404;11.152;2023-02-28T11:52:00;7.20;99.90
14769;DHT22;7476;49.404;11.152;2023-02-28T11:57:54;6.80;99.90
14769;DHT22;7476;49.404;11.152;2023-02-28T12:00:37;7.10;99.90
14769;DHT22;7476;49.404;11.152;2023-02-28T12:03:18;6.70;99.90
14769;DHT22;7476;49.404;11.152;2023-02-28T12:05:54;6.50;99.90
14769;DHT22;7476;49.404;11.152;2023-02-28T12:08:42;6.60;99.90
14769;DHT22;7476;49.404;11.152;2023-02-28T12:11:17;6.90;99.90
14769;DHT22;7476;49.404;11.152;2023-02-28T12:13:50;6.40;99.90
14769;DHT22;7476;49.404;11.152;2023-02-28T12:16:33;7.10;99.90
14769;DHT22;7476;49.404;11.152;2023-02-28T12:19:13;6.90;99.90
14769;DHT22;7476;49.404;11.152;2023-02-28T12:21:53;7.00;99.90
14769;DHT22;7476;49.404;11.152;2023-02-28T12:24:39;7.30;99.90
14769;DHT22;7476;49.404;11.152;2023-02-28T12:27:11;8.20;99.90
14769;DHT22;7476;49.404;11.152;2023-02-28T12:29:46;7.80;99.90
14769;DHT22;7476;49.404;11.152;2023-02-28T12:32:18;7.70;99.90
14769;DHT22;7476;49.404;11.152;2023-02-28T12:34:49;7.20;99.90
14769;DHT22;7476;49.404;11.152;2023-02-28T12:37:21;7.40;99.90
14769;DHT22;7476;49.404;11.152;2023-02-28T12:39:54;6.80;99.90
14769;DHT22;7476;49.404;11.152;2023-02-28T12:42:26;6.80;99.90
14769;DHT22;7476;49.404;11.152;2023-02-28T12:44:57;6.70;99.90
14769;DHT22;7476;49.404;11.152;2023-02-28T12:47:25;7.20;99.90
14769;DHT22;7476;49.404;11.152;2023-02-28T12:49:55;7.80;99.90
14769;DHT22;7476;49.404;11.152;2023-02-28T12:52:30;8.00;99.90
14769;DHT22;7476;49.404;11.152;2023-02-28T12:55:05;8.30;99.90
14769;DHT22;7476;49.404;11.152;2023-02-28T12:57:38;8.60;99.90
14769;DHT22;7476;49.404;11.152;2023-02-28T13:00:11;8.20;99.90
14769;DHT22;7476;49.404;11.152;2023-02-28T13:02:52;8.50;99.90
14769;DHT22;7476;49.404;11.152;2023-02-28T13:05:44;9.00;99.90
14769;DHT22;7476;49.404;11.152;2023-02-28T13:08:35;8.00;99.90
14769;DHT22;7476;49.404;11.152;2023-02-28T13:11:07;8.40;99.90
14769;DHT22;7476;49.404;11.152;2023-02-28T13:13:57;9.00;99.90
14769;DHT22;7476;49.404;11.152;2023-02-28T13:16:24;8.00;99.90
14769;DHT22;7476;49.404;11.152;2023-02-28T13:18:51;8.10;99.90
14769;DHT22;7476;49.404;11.152;2023-02-28T13:21:26;7.70;99.90
14769;DHT22;7476;49.404;11.152;2023-02-28T13:23:59;7.60;99.90
14769;DHT22;7476;49.404;11.152;2023-02-28T13:29:31;7.50;99.90
14769;DHT22;7476;49.404;11.152;2023-02-28T13:35:36;7.60;99.90
14769;DHT22;7476;49.404;11.152;2023-02-28T13:38:34;8.10;99.90
14769;DHT22;7476;49.404;11.152;2023-02-28T13:41:40;7.30;99.90
14769;DHT22;7476;49.404;11.152;2023-02-28T13:44:08;7.40;99.90
14769;DHT22;7476;49.404;11.152;2023-02-28T13:49:41;6.70;99.90
14769;DHT22;7476;49.404;11.152;2023-02-28T13:52:14;7.00;99.90
14769;DHT22;7476;49.404;11.152;2023-02-28T13:57:44;7.40;99.90
14769;DHT22;7476;49.404;11.152;2023-02-28T14:00:23;7.00;99.90
14769;DHT22;7476;49.404;11.152;2023-02-28T14:03:07;7.10;99.90
14769;DHT22;7476;49.404;11.152;2023-02-28T14:05:37;7.50;99.90
14769;DHT22;7476;49.404;11.152;2023-02-28T14:08:06;7.50;99.90
14769;DHT22;7476;49.404;11.152;2023-02-28T14:10:42;7.30;99.90
14769;DHT22;7476;49.404;11.152;2023-02-28T14:13:38;7.40;99.90
14769;DHT22;7476;49.404;11.152;2023-02-28T14:16:10;8.00;99.90
14769;DHT22;7476;49.404;11.152;2023-02-28T14:18:41;8.50;99.90
14769;DHT22;7476;49.404;11.152;2023-02-28T14:21:13;8.80;99.90
14769;DHT22;7476;49.404;11.152;2023-02-28T14:23:54;8.80;99.90
14769;DHT22;7476;49.404;11.152;2023-02-28T14:26:36;8.20;99.90
14769;DHT22;7476;49.404;11.152;2023-02-28T14:32:10;8.20;99.90
14769;DHT22;7476;49.404;11.152;2023-02-28T14:34:46;8.00;99.90
14769;DHT22;7476;49.404;11.152;2023-02-28T14:37:20;7.20;99.90
14769;DHT22;7476;49.404;11.152;2023-02-28T14:39:47;7.60;99.90
14769;DHT22;7476;49.404;11.152;2023-02-28T14:42:32;8.60;99.90
14769;DHT22;7476;49.404;11.152;2023-02-28T14:44:59;9.60;99.90
14769;DHT22;7476;49.404;11.152;2023-02-28T14:47:27;8.60;99.90
14769;DHT22;7476;49.404;11.152;2023-02-28T14:49:57;8.70;99.90
14769;DHT22;7476;49.404;11.152;2023-02-28T14:52:26;8.60;99.90
14769;DHT22;7476;49.404;11.152;2023-02-28T14:54:55;8.30;99.90
14769;DHT22;7476;49.404;11.152;2023-02-28T14:57:25;7.90;99.90
14769;DHT22;7476;49.404;11.152;2023-02-28T15:00:00;7.30;99.90
14769;DHT22;7476;49.404;11.152;2023-02-28T15:02:30;7.50;99.90
14769;DHT22;7476;49.404;11.152;2023-02-28T15:05:00;6.80;99.90
14769;DHT22;7476;49.404;11.152;2023-02-28T15:07:28;7.10;99.90
14769;DHT22;7476;49.404;11.152;2023-02-28T15:10:15;7.10;99.90
14769;DHT22;7476;49.404;11.152;2023-02-28T15:12:49;7.20;99.90
14769;DHT22;7476;49.404;11.152;2023-02-28T15:15:17;7.60;99.90
14769;DHT22;7476;49.404;11.152;2023-02-28T15:17:48;7.20;99.90
14769;DHT22;7476;49.404;11.152;2023-02-28T15:20:18;7.00;99.90
14769;DHT22;7476;49.404;11.152;2023-02-28T15:22:46;7.70;99.90
14769;DHT22;7476;49.404;11.152;2023-02-28T15:25:17;7.80;99.90
14769;DHT22;7476;49.404;11.152;2023-02-28T15:27:47;7.20;99.90
14769;DHT22;7476;49.404;11.152;2023-02-28T15:30:16;6.80;99.90
14769;DHT22;7476;49.404;11.152;2023-02-28T15:32:44;6.60;99.90
14769;DHT22;7476;49.404;11.152;2023-02-28T15:35:20;6.30;99.90
14769;DHT22;7476;49.404;11.152;2023-02-28T15:37:54;6.60;99.90
14769;DHT22;7476;49.404;11.152;2023-02-28T15:40:25;6.60;99.90
14769;DHT22;7476;49.404;11.152;2023-02-28T15:43:03;6.50;99.90
14769;DHT22;7476;49.404;11.152;2023-02-28T15:45:36;6.80;99.90
14769;DHT22;7476;49.404;11.152;2023-02-28T15:48:06;6.60;99.90
14769;DHT22;7476;49.404;11.152;2023-02-28T15:50:41;6.50;99.90
14769;DHT22;7476;49.404;11.152;2023-02-28T15:53:12;5.90;99.90
14769;DHT22;7476;49.404;11.152;2023-02-28T15:55:39;6.50;99.90
14769;DHT22;7476;49.404;11.152;2023-02-28T15:58:09;6.70;99.90
14769;DHT22;7476;49.404;11.152;2023-02-28T16:00:38;6.30;99.90
14769;DHT22;7476;49.404;11.152;2023-02-28T16:03:23;6.40;99.90
14769;DHT22;7476;49.404;11.152;2023-02-28T16:06:09;6.80;99.90
14769;DHT22;7476;49.404;11.152;2023-02-28T16:08:46;6.70;99.90
14769;DHT22;7476;49.404;11.152;2023-02-28T16:11:14;5.80;99.90
14769;DHT22;7476;49.404;11.152;2023-02-28T16:13:41;6.00;99.90
14769;DHT22;7476;49.404;11.152;2023-02-28T16:16:07;6.00;99.90
14769;DHT22;7476;49.404;11.152;2023-02-28T16:18:34;5.20;99.90
14769;DHT22;7476;49.404;11.152;2023-02-28T16:21:01;4.50;99.90
14769;DHT22;7476;49.404;11.152;2023-02-28T16:23:29;4.30;99.90
14769;DHT22;7476;49.404;11.152;2023-02-28T16:25:55;4.00;99.90